Time;durP1;ratioP1;P1;durP2;ratioP2;P2;SDS_P1;SDS_P2;PMS_P1;PMS_P2;Temp;Humidity;BMP_temperature;BMP_pressure;BME280_temperature;BME280_humidity;BME280_pressure;Samples;Min_cycle;Max_cycle;Signal;HPM_P1;HPM_P2
2023/11/14 00:02:24;;;;;;;;;;;;;;;8.81;100.00;99062.03;5107648;28;20010;-57
2023/11/14 00:04:51;;;;;;;;;;;;;;;8.84;100.00;99071.47;5107237;28;19923;-53
2023/11/14 00:07:18;;;;;;;;;;;;;;;8.85;100.00;99073.94;5102555;28;19932;-56
2023/11/14 00:09:46;;;;;;;;;;;;;;;8.90;100.00;99086.72;5105727;28;19973;-50
2023/11/14 00:12:15;;;;;;;;;;;;;;;8.94;100.00;99077.66;5102743;28;20006;-54
2023/11/14 00:14:43;;;;;;;;;;;;;;;8.98;100.00;99071.22;5105418;28;19934;-56
2023/11/14 00:17:10;;;;;;;;;;;;;;;8.96;100.00;99078.41;5105739;28;19990;-53
2023/11/14 00:19:39;;;;;;;;;;;;;;;9.00;100.00;99071.94;5105901;28;19935;-57
2023/11/14 00:22:07;;;;;;;;;;;;;;;8.99;100.00;99070.25;5092352;28;19923;-53
2023/11/14 00:24:34;;;;;;;;;;;;;;;8.99;100.00;99075.50;5104465;28;19961;-54
2023/11/14 00:27:01;;;;;;;;;;;;;;;9.05;100.00;99072.44;5105557;28;19967;-53
2023/11/14 00:29:28;;;;;;;;;;;;;;;9.04;100.00;99077.78;5089579;28;20019;-55
2023/11/14 00:31:55;;;;;;;;;;;;;;;9.05;100.00;99082.06;5095291;28;19924;-55
2023/11/14 00:34:22;;;;;;;;;;;;;;;9.05;100.00;99079.44;5109723;27;19963;-54
2023/11/14 00:36:50;;;;;;;;;;;;;;;9.04;100.00;99086.50;5112762;27;19989;-56
2023/11/14 00:39:17;;;;;;;;;;;;;;;9.01;100.00;99085.91;5112141;27;20030;-56
2023/11/14 00:41:46;;;;;;;;;;;;;;;8.97;100.00;99097.59;5113152;27;20007;-53
2023/11/14 00:44:13;;;;;;;;;;;;;;;8.94;100.00;99106.53;5112304;27;19977;-54
2023/11/14 00:46:40;;;;;;;;;;;;;;;8.87;100.00;99097.44;5093914;28;19992;-57
2023/11/14 00:49:07;;;;;;;;;;;;;;;8.84;100.00;99108.19;5110377;27;19924;-54
2023/11/14 00:51:34;;;;;;;;;;;;;;;8.83;100.00;99107.38;5114024;27;20023;-57
2023/11/14 00:54:01;;;;;;;;;;;;;;;8.80;100.00;99099.72;5112115;27;20556;-57
2023/11/14 00:56:28;;;;;;;;;;;;;;;8.78;100.00;99101.63;5111786;27;20045;-56
2023/11/14 00:58:55;;;;;;;;;;;;;;;8.74;100.00;99110.69;5110054;27;20255;-52
2023/11/14 01:01:22;;;;;;;;;;;;;;;8.74;100.00;99109.84;5110680;27;19963;-56
2023/11/14 01:03:49;;;;;;;;;;;;;;;8.69;100.00;99111.97;5109278;27;20023;-56
2023/11/14 01:06:19;;;;;;;;;;;;;;;8.70;100.00;99104.00;5110979;27;20042;-58
2023/11/14 01:08:46;;;;;;;;;;;;;;;8.64;100.00;99104.44;5110053;27;20457;-56
2023/11/14 01:11:14;;;;;;;;;;;;;;;8.62;100.00;99095.84;5106901;27;20469;-56
2023/11/14 01:13:41;;;;;;;;;;;;;;;8.60;100.00;99101.22;5111106;27;20014;-53
2023/11/14 01:16:12;;;;;;;;;;;;;;;8.51;100.00;99104.53;5110383;28;19951;-55
2023/11/14 01:18:40;;;;;;;;;;;;;;;8.51;100.00;99112.41;5111794;27;20232;-56
2023/11/14 01:21:07;;;;;;;;;;;;;;;8.46;100.00;99113.69;5107267;27;19924;-57
2023/11/14 01:23:34;;;;;;;;;;;;;;;8.46;100.00;99104.03;5107836;27;19942;-53
2023/11/14 01:26:02;;;;;;;;;;;;;;;8.45;100.00;99104.97;5106415;27;19924;-57
2023/11/14 01:28:29;;;;;;;;;;;;;;;8.44;100.00;99105.94;5109970;27;19963;-57
2023/11/14 01:30:56;;;;;;;;;;;;;;;8.38;100.00;99110.81;5106291;27;19931;-50
2023/11/14 01:33:23;;;;;;;;;;;;;;;8.38;100.00;99100.31;5106642;27;20019;-52
2023/11/14 01:35:50;;;;;;;;;;;;;;;8.35;100.00;99104.78;5112147;27;20330;-56
2023/11/14 01:38:17;;;;;;;;;;;;;;;8.33;100.00;99103.22;5111398;27;19971;-55
2023/11/14 01:40:48;;;;;;;;;;;;;;;8.29;100.00;99099.19;5111291;27;19955;-55
2023/11/14 01:43:15;;;;;;;;;;;;;;;8.30;100.00;99091.19;5115874;27;20368;-56
2023/11/14 01:45:43;;;;;;;;;;;;;;;8.25;100.00;99095.94;5083185;28;19967;-56
2023/11/14 01:48:10;;;;;;;;;;;;;;;8.25;100.00;99097.75;5111998;27;20372;-57
2023/11/14 01:50:37;;;;;;;;;;;;;;;8.23;100.00;99091.75;5112746;27;20370;-56
2023/11/14 01:53:04;;;;;;;;;;;;;;;8.24;100.00;99096.03;5108748;27;20300;-58
2023/11/14 01:55:31;;;;;;;;;;;;;;;8.23;100.00;99084.72;5091413;28;20026;-56
2023/11/14 01:57:58;;;;;;;;;;;;;;;8.19;100.00;99087.69;5113031;27;20061;-57
2023/11/14 02:00:26;;;;;;;;;;;;;;;8.15;100.00;99096.72;5107419;27;20350;-55
2023/11/14 02:02:53;;;;;;;;;;;;;;;8.15;100.00;99101.97;5111532;27;19937;-58
2023/11/14 02:05:20;;;;;;;;;;;;;;;8.13;100.00;99110.78;5090272;28;19935;-55
2023/11/14 02:07:47;;;;;;;;;;;;;;;8.14;100.00;99101.13;5089647;28;19927;-56
2023/11/14 02:10:14;;;;;;;;;;;;;;;8.15;100.00;99115.06;5104822;27;19924;-58
2023/11/14 02:12:41;;;;;;;;;;;;;;;8.17;100.00;99113.19;5089542;28;20018;-55
2023/11/14 02:15:08;;;;;;;;;;;;;;;8.15;100.00;99115.94;5101076;27;19973;-56
2023/11/14 02:17:35;;;;;;;;;;;;;;;8.12;100.00;99113.53;5104141;28;19923;-51
2023/11/14 02:20:03;;;;;;;;;;;;;;;8.15;100.00;99120.31;5109052;27;19924;-52
2023/11/14 02:22:30;;;;;;;;;;;;;;;8.15;100.00;99120.31;5107332;27;19985;-59
2023/11/14 02:24:57;;;;;;;;;;;;;;;8.12;100.00;99116.97;5107304;27;20379;-53
2023/11/14 02:27:24;;;;;;;;;;;;;;;8.11;100.00;99120.56;5094840;27;20969;-57
2023/11/14 02:29:53;;;;;;;;;;;;;;;8.10;100.00;99113.66;5097972;27;20345;-56
2023/11/14 02:32:23;;;;;;;;;;;;;;;8.11;100.00;99117.94;5103964;28;20046;-57
2023/11/14 02:34:52;;;;;;;;;;;;;;;8.11;100.00;99107.44;5104955;28;20127;-57
2023/11/14 02:37:20;;;;;;;;;;;;;;;8.10;100.00;99104.91;5107478;27;20379;-55
2023/11/14 02:39:48;;;;;;;;;;;;;;;8.09;100.00;99101.47;5102891;28;19978;-57
2023/11/14 02:42:16;;;;;;;;;;;;;;;8.06;100.00;99114.81;5108794;27;20018;-56
2023/11/14 02:44:43;;;;;;;;;;;;;;;8.08;100.00;99102.41;5106458;28;19975;-53
2023/11/14 02:47:11;;;;;;;;;;;;;;;8.09;100.00;99100.63;5105067;28;20350;-53
2023/11/14 02:49:55;;;;;;;;;;;;;;;8.07;100.00;99098.13;5104039;28;19958;-58
2023/11/14 02:52:23;;;;;;;;;;;;;;;8.08;100.00;99098.97;5090342;28;19924;-56
2023/11/14 02:54:52;;;;;;;;;;;;;;;8.05;100.00;99094.75;5104371;28;19924;-54
2023/11/14 02:57:19;;;;;;;;;;;;;;;8.04;100.00;99098.34;5105735;27;19928;-55
2023/11/14 02:59:47;;;;;;;;;;;;;;;8.03;100.00;99098.47;5107950;27;20289;-58
2023/11/14 03:02:14;;;;;;;;;;;;;;;8.05;100.00;99100.00;5089274;28;19963;-53
2023/11/14 03:04:41;;;;;;;;;;;;;;;8.07;100.00;99099.91;5104761;27;19932;-54
2023/11/14 03:07:08;;;;;;;;;;;;;;;8.11;100.00;99104.00;5104071;28;20010;-56
2023/11/14 03:09:35;;;;;;;;;;;;;;;8.16;100.00;99107.09;5106609;27;20006;-53
2023/11/14 03:12:03;;;;;;;;;;;;;;;8.20;100.00;99113.81;5103509;27;20062;-57
2023/11/14 03:14:30;;;;;;;;;;;;;;;8.22;100.00;99119.75;5106517;27;19931;-56
2023/11/14 03:16:57;;;;;;;;;;;;;;;8.29;100.00;99113.13;5107025;28;20066;-54
2023/11/14 03:19:24;;;;;;;;;;;;;;;8.33;100.00;99116.34;5105270;27;19989;-56
2023/11/14 03:21:51;;;;;;;;;;;;;;;8.38;100.00;99101.16;5105619;27;20943;-58
2023/11/14 03:24:18;;;;;;;;;;;;;;;8.43;100.00;99103.44;5101561;28;20197;-55
2023/11/14 03:26:45;;;;;;;;;;;;;;;8.48;100.00;99115.25;5106568;28;20515;-54
2023/11/14 03:29:12;;;;;;;;;;;;;;;8.52;100.00;99118.50;5093225;28;20014;-57
2023/11/14 03:31:39;;;;;;;;;;;;;;;8.56;100.00;99118.16;5103976;27;20413;-57
2023/11/14 03:34:06;;;;;;;;;;;;;;;8.60;100.00;99116.97;5108497;28;20006;-57
2023/11/14 03:36:33;;;;;;;;;;;;;;;8.65;100.00;99126.28;5105224;27;19967;-58
2023/11/14 03:39:00;;;;;;;;;;;;;;;8.64;100.00;99117.56;5103709;27;20336;-55
2023/11/14 03:41:27;;;;;;;;;;;;;;;8.71;100.00;99131.06;5104200;27;20026;-56
2023/11/14 03:43:54;;;;;;;;;;;;;;;8.73;100.00;99134.38;5110958;27;20071;-57
2023/11/14 03:46:21;;;;;;;;;;;;;;;8.73;100.00;99129.97;5105925;27;20098;-56
2023/11/14 03:48:48;;;;;;;;;;;;;;;8.73;100.00;99126.53;5106501;28;19924;-54
2023/11/14 03:51:15;;;;;;;;;;;;;;;8.73;100.00;99114.22;5101792;28;20393;-57
2023/11/14 03:53:44;;;;;;;;;;;;;;;8.74;100.00;99128.22;5107654;27;19999;-57
2023/11/14 03:56:11;;;;;;;;;;;;;;;8.77;100.00;99117.47;5090347;28;20382;-57
2023/11/14 03:58:39;;;;;;;;;;;;;;;8.79;100.00;99124.28;5105029;27;20039;-55
2023/11/14 04:01:06;;;;;;;;;;;;;;;8.77;100.00;99135.84;5107468;28;19974;-53
2023/11/14 04:03:34;;;;;;;;;;;;;;;8.78;100.00;99113.88;5104732;28;19931;-56
2023/11/14 04:06:01;;;;;;;;;;;;;;;8.83;100.00;99110.00;5102798;28;19998;-57
2023/11/14 04:08:28;;;;;;;;;;;;;;;8.80;100.00;99112.84;5106939;27;20010;-55
2023/11/14 04:10:55;;;;;;;;;;;;;;;8.76;100.00;99111.38;5105380;28;20402;-54
2023/11/14 04:13:22;;;;;;;;;;;;;;;8.77;100.00;99114.84;5108609;28;20117;-55
2023/11/14 04:15:49;;;;;;;;;;;;;;;8.83;100.00;99125.72;5103636;28;20330;-51
2023/11/14 04:18:16;;;;;;;;;;;;;;;8.80;100.00;99109.38;5103682;28;19926;-52
2023/11/14 04:20:43;;;;;;;;;;;;;;;8.80;100.00;99110.22;5104169;28;19924;-58
2023/11/14 04:23:10;;;;;;;;;;;;;;;8.83;100.00;99107.38;5109191;28;20028;-58
2023/11/14 04:25:37;;;;;;;;;;;;;;;8.85;100.00;99115.94;5105698;28;19982;-56
2023/11/14 04:28:04;;;;;;;;;;;;;;;8.86;100.00;99112.34;5102294;28;20491;-56
2023/11/14 04:30:31;;;;;;;;;;;;;;;8.86;100.00;99119.41;5098648;28;20027;-57
2023/11/14 04:32:59;;;;;;;;;;;;;;;8.88;100.00;99117.50;5102367;28;20459;-57
2023/11/14 04:35:26;;;;;;;;;;;;;;;8.95;100.00;99116.06;5104890;28;20026;-56
2023/11/14 04:37:56;;;;;;;;;;;;;;;8.98;100.00;99112.38;5102654;28;21405;-52
2023/11/14 04:40:23;;;;;;;;;;;;;;;9.00;100.00;99118.34;5105662;28;20405;-55
2023/11/14 04:42:51;;;;;;;;;;;;;;;9.02;100.00;99119.09;5106031;28;20030;-55
2023/11/14 04:45:18;;;;;;;;;;;;;;;9.09;100.00;99115.84;5106751;28;20020;-56
2023/11/14 04:47:45;;;;;;;;;;;;;;;9.11;100.00;99113.13;5109238;28;19959;-57
2023/11/14 04:50:12;;;;;;;;;;;;;;;9.12;100.00;99109.53;5101759;28;20026;-58
2023/11/14 04:52:39;;;;;;;;;;;;;;;9.16;100.00;99100.47;5103349;28;20397;-52
2023/11/14 04:55:07;;;;;;;;;;;;;;;9.19;100.00;99128.28;5105904;28;20006;-57
2023/11/14 04:57:34;;;;;;;;;;;;;;;9.22;100.00;99123.63;5098287;28;19935;-54
2023/11/14 05:00:04;;;;;;;;;;;;;;;9.28;100.00;99124.97;5106526;28;20346;-55
2023/11/14 05:02:31;;;;;;;;;;;;;;;9.34;100.00;99120.06;5103048;28;20366;-55
2023/11/14 05:04:58;;;;;;;;;;;;;;;9.37;100.00;99111.13;5102531;28;20576;-55
2023/11/14 05:07:25;;;;;;;;;;;;;;;9.42;100.00;99129.13;5103930;28;19966;-56
2023/11/14 05:09:52;;;;;;;;;;;;;;;9.48;100.00;99113.72;5100952;28;20003;-55
2023/11/14 05:12:19;;;;;;;;;;;;;;;9.47;100.00;99098.91;5103020;28;21349;-56
2023/11/14 05:14:46;;;;;;;;;;;;;;;9.48;100.00;99118.13;5109750;28;19976;-55
2023/11/14 05:17:13;;;;;;;;;;;;;;;9.49;100.00;99104.88;5104223;27;19924;-54
2023/11/14 05:19:41;;;;;;;;;;;;;;;9.53;100.00;99108.09;5107584;27;20106;-51
2023/11/14 05:22:12;;;;;;;;;;;;;;;9.54;100.00;99107.97;5106246;27;20003;-56
2023/11/14 05:24:39;;;;;;;;;;;;;;;9.57;100.00;99081.47;5089293;28;19975;-58
2023/11/14 05:27:06;;;;;;;;;;;;;;;9.58;100.00;99093.63;5102109;28;20418;-61
2023/11/14 05:29:33;;;;;;;;;;;;;;;9.60;100.00;99089.13;5109561;28;20002;-54
2023/11/14 05:32:03;;;;;;;;;;;;;;;9.60;100.00;99091.75;5096058;28;20018;-56
2023/11/14 05:34:30;;;;;;;;;;;;;;;9.62;100.00;99086.34;5113265;27;20023;-55
2023/11/14 05:36:57;;;;;;;;;;;;;;;9.63;100.00;99086.22;5104004;27;19940;-58
2023/11/14 05:39:24;;;;;;;;;;;;;;;9.70;100.00;99093.63;5109870;27;20457;-56
2023/11/14 05:41:54;;;;;;;;;;;;;;;9.73;100.00;99088.16;5107151;27;19924;-56
2023/11/14 05:44:21;;;;;;;;;;;;;;;9.73;100.00;99080.25;5111137;27;19951;-59
2023/11/14 05:46:48;;;;;;;;;;;;;;;9.73;100.00;99086.34;5115894;27;19924;-54
2023/11/14 05:49:15;;;;;;;;;;;;;;;9.81;100.00;99093.59;5107846;27;20026;-55
2023/11/14 05:51:42;;;;;;;;;;;;;;;9.83;100.00;99081.19;5107543;27;20023;-54
2023/11/14 05:54:09;;;;;;;;;;;;;;;9.83;100.00;99079.41;5107540;27;20125;-57
2023/11/14 05:56:35;;;;;;;;;;;;;;;9.81;100.00;99083.91;5103937;28;20302;-56
2023/11/14 05:59:03;;;;;;;;;;;;;;;9.81;100.00;99083.09;5111922;27;20788;-53
2023/11/14 06:01:30;;;;;;;;;;;;;;;9.87;100.00;99085.25;5110887;27;19959;-55
2023/11/14 06:03:57;;;;;;;;;;;;;;;9.91;100.00;99084.03;5095406;28;20066;-56
2023/11/14 06:06:24;;;;;;;;;;;;;;;9.89;100.00;99085.94;5106196;27;19963;-55
2023/11/14 06:08:51;;;;;;;;;;;;;;;9.92;100.00;99093.59;5103899;27;19956;-53
2023/11/14 06:11:18;;;;;;;;;;;;;;;9.93;100.00;99084.75;5110176;27;19968;-57
2023/11/14 06:13:45;;;;;;;;;;;;;;;9.90;100.00;99072.66;5106275;27;20254;-58
2023/11/14 06:16:12;;;;;;;;;;;;;;;9.95;100.00;99076.72;5106102;28;20007;-52
2023/11/14 06:18:40;;;;;;;;;;;;;;;9.95;100.00;99072.31;5101854;27;19950;-57
2023/11/14 06:21:07;;;;;;;;;;;;;;;9.90;100.00;99071.84;5105160;27;20710;-57
2023/11/14 06:23:34;;;;;;;;;;;;;;;9.89;100.00;99080.69;5092992;27;20000;-58
2023/11/14 06:26:01;;;;;;;;;;;;;;;9.89;100.00;99072.81;5107222;27;20411;-56
2023/11/14 06:28:28;;;;;;;;;;;;;;;9.91;100.00;99081.41;5095409;28;20004;-55
2023/11/14 06:30:56;;;;;;;;;;;;;;;9.93;100.00;99084.75;5108136;27;20007;-52
2023/11/14 06:33:23;;;;;;;;;;;;;;;9.97;100.00;99091.41;5102661;28;20003;-54
2023/11/14 06:35:52;;;;;;;;;;;;;;;10.01;100.00;99081.50;5101906;27;20467;-53
2023/11/14 06:38:19;;;;;;;;;;;;;;;9.95;100.00;99093.34;5114162;27;20054;-55
2023/11/14 06:40:46;;;;;;;;;;;;;;;9.96;100.00;99084.50;5104643;28;19990;-57
2023/11/14 06:43:13;;;;;;;;;;;;;;;9.96;100.00;99095.00;5100286;27;19931;-53
2023/11/14 06:45:40;;;;;;;;;;;;;;;9.94;100.00;99096.91;5108976;27;19924;-58
2023/11/14 06:48:08;;;;;;;;;;;;;;;9.96;100.00;99087.13;5100072;27;20397;-53
2023/11/14 06:50:35;;;;;;;;;;;;;;;9.99;100.00;99096.53;5105386;28;20006;-55
2023/11/14 06:53:10;;;;;;;;;;;;;;;10.05;100.00;99096.91;5103351;27;20414;-53
2023/11/14 06:55:38;;;;;;;;;;;;;;;9.98;100.00;99093.09;5104392;28;20409;-58
2023/11/14 06:58:05;;;;;;;;;;;;;;;10.04;100.00;99084.72;5101001;27;20484;-56
2023/11/14 07:00:32;;;;;;;;;;;;;;;10.07;100.00;99091.50;5100550;27;20007;-53
2023/11/14 07:02:59;;;;;;;;;;;;;;;10.10;100.00;99105.25;5107807;27;19991;-57
2023/11/14 07:05:26;;;;;;;;;;;;;;;10.08;100.00;99091.38;5103465;28;19924;-57
2023/11/14 07:07:54;;;;;;;;;;;;;;;10.07;100.00;99096.75;5099980;27;19931;-57
2023/11/14 07:10:23;;;;;;;;;;;;;;;10.11;100.00;99100.81;5108771;27;20416;-56
2023/11/14 07:12:50;;;;;;;;;;;;;;;10.10;100.00;99086.00;5098978;28;19962;-56
2023/11/14 07:15:20;;;;;;;;;;;;;;;10.11;100.00;99098.19;5107137;27;19978;-55
2023/11/14 07:17:47;;;;;;;;;;;;;;;10.14;100.00;99093.53;5104060;27;20071;-52
2023/11/14 07:20:20;;;;;;;;;;;;;;;10.18;100.00;99094.13;5105319;28;19971;-57
2023/11/14 07:22:48;;;;;;;;;;;;;;;10.13;100.00;99101.50;5105899;28;19974;-49
2023/11/14 07:25:16;;;;;;;;;;;;;;;10.16;100.00;99101.28;5105334;27;19966;-55
2023/11/14 07:27:46;;;;;;;;;;;;;;;10.20;100.00;99099.25;5089864;28;19931;-57
2023/11/14 07:30:13;;;;;;;;;;;;;;;10.23;100.00;99094.56;5107049;27;20086;-56
2023/11/14 07:32:40;;;;;;;;;;;;;;;10.25;100.00;99110.25;5095797;27;19924;-58
2023/11/14 07:35:10;;;;;;;;;;;;;;;10.34;100.00;99107.69;5103971;28;20314;-51
2023/11/14 07:37:37;;;;;;;;;;;;;;;10.31;100.00;99102.69;5104210;27;19928;-56
2023/11/14 07:40:05;;;;;;;;;;;;;;;10.44;100.00;99096.41;5104823;27;20010;-57
2023/11/14 07:42:32;;;;;;;;;;;;;;;10.51;100.00;99116.84;5103679;27;19967;-54
2023/11/14 07:44:59;;;;;;;;;;;;;;;10.52;100.00;99105.34;5104138;27;20018;-54
2023/11/14 07:47:26;;;;;;;;;;;;;;;10.56;100.00;99106.75;5106791;27;20000;-55
2023/11/14 07:49:53;;;;;;;;;;;;;;;10.48;100.00;99100.47;5105222;27;19963;-56
2023/11/14 07:52:20;;;;;;;;;;;;;;;10.52;100.00;99107.13;5105107;28;19968;-56
2023/11/14 07:54:48;;;;;;;;;;;;;;;10.54;100.00;99110.50;5107897;27;20351;-58
2023/11/14 07:57:15;;;;;;;;;;;;;;;10.60;99.57;99115.25;5104904;27;19959;-53
2023/11/14 07:59:43;;;;;;;;;;;;;;;10.64;99.73;99114.84;5106059;27;19991;-56
2023/11/14 08:02:10;;;;;;;;;;;;;;;10.71;99.07;99104.63;5105313;28;20001;-58
2023/11/14 08:04:37;;;;;;;;;;;;;;;10.74;98.73;99101.75;5105648;28;20016;-56
2023/11/14 08:07:07;;;;;;;;;;;;;;;10.75;99.52;99123.66;5102470;28;19967;-57
2023/11/14 08:09:34;;;;;;;;;;;;;;;10.75;99.51;99107.84;5102733;27;20405;-56
2023/11/14 08:12:01;;;;;;;;;;;;;;;10.77;99.14;99114.66;5104464;28;19963;-56
2023/11/14 08:14:28;;;;;;;;;;;;;;;10.81;98.98;99107.34;5105926;28;19924;-55
2023/11/14 08:16:55;;;;;;;;;;;;;;;10.91;98.44;99108.25;5105036;28;19970;-52
2023/11/14 08:19:23;;;;;;;;;;;;;;;10.86;98.08;99118.34;5105779;28;19924;-52
2023/11/14 08:21:50;;;;;;;;;;;;;;;10.98;98.45;99116.44;5104834;28;20027;-52
2023/11/14 08:24:19;;;;;;;;;;;;;;;11.05;97.93;99113.16;5104576;28;19985;-57
2023/11/14 08:26:46;;;;;;;;;;;;;;;11.05;97.67;99117.59;5106995;28;19967;-58
2023/11/14 08:29:13;;;;;;;;;;;;;;;11.02;98.28;99110.78;5101106;28;19938;-56
2023/11/14 08:31:42;;;;;;;;;;;;;;;11.04;98.15;99111.50;5108422;28;19931;-55
2023/11/14 08:34:09;;;;;;;;;;;;;;;11.08;97.46;99115.56;5104344;28;20019;-54
2023/11/14 08:36:36;;;;;;;;;;;;;;;11.05;97.51;99107.06;5096764;28;19932;-54
2023/11/14 08:39:03;;;;;;;;;;;;;;;11.05;97.07;99115.81;5102254;28;20006;-55
2023/11/14 08:41:30;;;;;;;;;;;;;;;11.02;97.26;99115.22;5107088;28;20014;-55
2023/11/14 08:43:57;;;;;;;;;;;;;;;11.18;97.80;99120.03;5103216;28;19928;-57
2023/11/14 08:46:25;;;;;;;;;;;;;;;11.15;97.02;99106.16;5107342;28;20019;-52
2023/11/14 08:48:52;;;;;;;;;;;;;;;11.22;96.74;99119.63;5108171;28;20030;-52
2023/11/14 08:51:21;;;;;;;;;;;;;;;11.24;96.25;99120.34;5105532;27;20221;-53
2023/11/14 08:53:48;;;;;;;;;;;;;;;11.27;95.62;99111.34;5111021;27;19947;-56
2023/11/14 08:56:15;;;;;;;;;;;;;;;11.23;95.96;99116.03;5105372;27;20340;-56
2023/11/14 08:58:42;;;;;;;;;;;;;;;11.30;94.99;99111.06;5101857;28;19957;-58
2023/11/14 09:01:11;;;;;;;;;;;;;;;11.27;94.85;99121.88;5105741;27;19974;-56
2023/11/14 09:03:38;;;;;;;;;;;;;;;11.36;94.75;99126.34;5108638;27;20574;-58
2023/11/14 09:06:06;;;;;;;;;;;;;;;11.47;95.13;99113.06;5108398;27;20005;-57
2023/11/14 09:08:34;;;;;;;;;;;;;;;11.51;93.62;99135.56;5109742;27;19924;-54
2023/11/14 09:11:01;;;;;;;;;;;;;;;11.52;93.71;99125.84;5109915;27;20357;-57
2023/11/14 09:13:28;;;;;;;;;;;;;;;11.55;93.62;99122.97;5094292;28;20384;-53
2023/11/14 09:15:55;;;;;;;;;;;;;;;11.50;92.99;99133.91;5110268;27;20476;-57
2023/11/14 09:18:23;;;;;;;;;;;;;;;11.45;92.49;99127.38;5110625;27;20026;-56
2023/11/14 09:20:50;;;;;;;;;;;;;;;11.48;93.15;99111.28;5108431;28;20405;-57
2023/11/14 09:23:17;;;;;;;;;;;;;;;11.48;92.66;99140.25;5106618;27;20040;-57
2023/11/14 09:25:44;;;;;;;;;;;;;;;11.54;92.42;99140.59;5107317;27;19967;-54
2023/11/14 09:28:11;;;;;;;;;;;;;;;11.59;92.08;99119.09;5111402;27;20018;-56
2023/11/14 09:30:38;;;;;;;;;;;;;;;11.69;91.95;99119.94;5112334;27;19967;-56
2023/11/14 09:33:07;;;;;;;;;;;;;;;11.74;91.14;99117.75;5108018;27;19977;-57
2023/11/14 09:35:34;;;;;;;;;;;;;;;11.68;90.94;99117.47;5104562;27;20101;-56
2023/11/14 09:38:01;;;;;;;;;;;;;;;11.72;91.20;99114.41;5108153;27;19924;-56
2023/11/14 09:40:28;;;;;;;;;;;;;;;11.72;91.39;99138.16;5106711;28;20018;-55
2023/11/14 09:42:55;;;;;;;;;;;;;;;11.72;90.11;99105.69;5110099;28;20012;-58
2023/11/14 09:45:24;;;;;;;;;;;;;;;11.82;90.67;99131.13;5091294;28;20007;-57
2023/11/14 09:47:51;;;;;;;;;;;;;;;11.81;90.09;99147.88;5110187;27;19984;-54
2023/11/14 09:50:19;;;;;;;;;;;;;;;11.96;89.68;99116.72;5107402;28;19938;-55
2023/11/14 09:52:46;;;;;;;;;;;;;;;11.99;88.68;99113.00;5105432;28;20022;-57
2023/11/14 09:55:14;;;;;;;;;;;;;;;12.19;88.65;99104.13;5111460;27;20010;-58
2023/11/14 09:57:44;;;;;;;;;;;;;;;12.19;87.62;99087.47;5108310;28;20379;-59
2023/11/14 10:00:12;;;;;;;;;;;;;;;12.31;86.91;99126.78;5092990;27;20027;-56
2023/11/14 10:02:40;;;;;;;;;;;;;;;12.25;86.74;99115.91;5101538;27;20023;-58
2023/11/14 10:05:08;;;;;;;;;;;;;;;12.30;86.84;99106.63;5106620;28;20011;-56
2023/11/14 10:07:42;;;;;;;;;;;;;;;12.21;87.79;99102.19;5105117;28;19930;-59
2023/11/14 10:10:11;;;;;;;;;;;;;;;12.19;87.69;99122.59;5091630;27;20004;-57
2023/11/14 10:12:38;;;;;;;;;;;;;;;12.04;87.79;99095.78;5092112;28;20018;-56
2023/11/14 10:15:07;;;;;;;;;;;;;;;11.97;87.77;99125.47;5105248;28;20011;-57
2023/11/14 10:17:44;;;;;;;;;;;;;;;12.02;87.69;99110.06;5106583;27;20036;-56
2023/11/14 10:20:11;;;;;;;;;;;;;;;12.03;88.26;99120.50;5102177;27;20130;-53
2023/11/14 10:22:45;;;;;;;;;;;;;;;12.02;88.62;99125.88;5104795;28;19994;-56
2023/11/14 10:25:22;;;;;;;;;;;;;;;12.07;88.87;99121.88;5106716;27;20006;-58
2023/11/14 10:27:54;;;;;;;;;;;;;;;12.04;88.68;99119.50;5103461;28;20265;-58
2023/11/14 10:30:21;;;;;;;;;;;;;;;12.08;88.79;99106.91;5108900;28;20337;-58
2023/11/14 10:32:54;;;;;;;;;;;;;;;12.25;88.32;99108.00;5109173;27;20011;-55
2023/11/14 10:35:21;;;;;;;;;;;;;;;12.25;87.58;99113.28;5104881;28;20023;-55
2023/11/14 10:37:49;;;;;;;;;;;;;;;12.19;88.12;99104.13;5105674;28;20017;-56
2023/11/14 10:40:16;;;;;;;;;;;;;;;12.36;88.03;99094.69;5104349;27;19969;-55
2023/11/14 10:42:50;;;;;;;;;;;;;;;12.57;86.20;99124.41;5106836;27;19928;-58
2023/11/14 10:45:17;;;;;;;;;;;;;;;12.75;85.58;99105.22;5105927;27;19963;-57
2023/11/14 10:47:44;;;;;;;;;;;;;;;12.75;84.79;99126.34;5104008;28;20015;-58
2023/11/14 10:50:28;;;;;;;;;;;;;;;12.87;84.60;99093.50;5104037;28;19924;-58
2023/11/14 10:52:59;;;;;;;;;;;;;;;13.03;83.24;99101.69;5104159;28;20031;-56
2023/11/14 10:55:27;;;;;;;;;;;;;;;12.88;83.54;99095.19;5102107;27;19932;-53
2023/11/14 10:57:56;;;;;;;;;;;;;;;12.79;83.77;99106.59;5107085;28;20002;-56
2023/11/14 11:00:24;;;;;;;;;;;;;;;12.79;84.59;99099.53;5102620;28;19930;-54
2023/11/14 11:02:52;;;;;;;;;;;;;;;12.81;84.06;99104.66;5104297;27;20478;-58
2023/11/14 11:05:28;;;;;;;;;;;;;;;12.89;83.47;99107.41;5104022;27;19962;-52
2023/11/14 11:07:59;;;;;;;;;;;;;;;12.99;83.01;99100.31;5099547;28;20040;-56
2023/11/14 11:10:30;;;;;;;;;;;;;;;12.75;83.26;99126.34;5104992;27;20010;-57
2023/11/14 11:12:58;;;;;;;;;;;;;;;12.76;83.28;99085.75;5086826;28;19960;-57
2023/11/14 11:15:25;;;;;;;;;;;;;;;12.66;83.95;99109.53;5070720;28;19958;-50
2023/11/14 11:17:58;;;;;;;;;;;;;;;12.73;84.24;99110.63;5104395;27;20106;-51
2023/11/14 11:20:26;;;;;;;;;;;;;;;12.70;83.90;99118.00;5102935;28;20358;-56
2023/11/14 11:23:14;;;;;;;;;;;;;;;12.74;83.99;99104.38;5105933;27;19937;-54
2023/11/14 11:25:42;;;;;;;;;;;;;;;12.53;84.67;99101.06;5101184;27;20018;-59
2023/11/14 11:28:18;;;;;;;;;;;;;;;12.51;84.31;99124.13;5103562;28;19954;-54
2023/11/14 11:31:04;;;;;;;;;;;;;;;12.48;84.87;99103.31;5104194;27;20026;-52
2023/11/14 11:33:31;;;;;;;;;;;;;;;12.55;84.48;99123.72;5106496;27;20026;-57
2023/11/14 11:36:17;;;;;;;;;;;;;;;12.53;84.93;99107.19;5105648;27;19981;-54
2023/11/14 11:39:04;;;;;;;;;;;;;;;12.62;85.18;99110.78;5096665;27;20005;-55
2023/11/14 11:41:34;;;;;;;;;;;;;;;12.57;84.62;99121.78;5106791;27;20018;-57
2023/11/14 11:44:03;;;;;;;;;;;;;;;12.59;85.05;99125.09;5090056;28;19924;-55
2023/11/14 11:46:36;;;;;;;;;;;;;;;12.55;84.68;99158.03;5102428;28;19984;-55
2023/11/14 11:49:12;;;;;;;;;;;;;;;12.49;85.42;99134.84;5109061;27;19963;-58
2023/11/14 11:51:44;;;;;;;;;;;;;;;12.57;85.82;99139.44;5105950;28;19931;-57
2023/11/14 11:54:26;;;;;;;;;;;;;;;12.55;85.25;99147.47;5087957;28;20390;-51
2023/11/14 11:57:13;;;;;;;;;;;;;;;12.55;85.72;99147.47;5110667;27;20031;-56
2023/11/14 11:59:40;;;;;;;;;;;;;;;12.60;85.33;99139.13;5104950;28;19975;-55
2023/11/14 12:02:10;;;;;;;;;;;;;;;12.60;85.33;99145.22;5102144;27;20019;-58
2023/11/14 12:04:37;;;;;;;;;;;;;;;12.55;86.01;99139.53;5098825;27;20525;-55
2023/11/14 12:07:05;;;;;;;;;;;;;;;12.63;85.31;99144.97;5088889;28;20393;-55
2023/11/14 12:09:32;;;;;;;;;;;;;;;12.61;85.48;99160.13;5090154;28;19924;-57
2023/11/14 12:12:00;;;;;;;;;;;;;;;12.64;84.94;99137.88;5107937;27;19985;-54
2023/11/14 12:14:27;;;;;;;;;;;;;;;12.60;85.62;99149.69;5105107;28;19963;-55
2023/11/14 12:16:55;;;;;;;;;;;;;;;12.54;85.33;99145.81;5105703;28;20031;-56
2023/11/14 12:19:25;;;;;;;;;;;;;;;12.52;85.61;99133.69;5105056;28;19924;-56
2023/11/14 12:21:52;;;;;;;;;;;;;;;12.64;86.26;99153.72;5106731;28;20051;-56
2023/11/14 12:24:19;;;;;;;;;;;;;;;12.59;86.30;99133.00;5108539;28;20355;-57
2023/11/14 12:26:46;;;;;;;;;;;;;;;12.49;87.00;99152.47;5109552;27;19966;-57
2023/11/14 12:29:13;;;;;;;;;;;;;;;12.44;87.35;99154.69;5112203;27;20071;-56
2023/11/14 12:31:51;;;;;;;;;;;;;;;12.57;88.31;99149.97;5105611;28;19990;-52
2023/11/14 12:34:30;;;;;;;;;;;;;;;12.54;88.48;99144.97;5112643;27;20322;-53
2023/11/14 12:37:12;;;;;;;;;;;;;;;12.52;88.78;99160.09;5110916;27;19981;-54
2023/11/14 12:39:39;;;;;;;;;;;;;;;12.41;88.26;99180.38;5110503;28;19953;-56
2023/11/14 12:42:06;;;;;;;;;;;;;;;12.40;88.30;99154.13;5127605;22;19932;-59
2023/11/14 12:44:33;;;;;;;;;;;;;;;12.36;87.55;99145.66;5089650;28;20658;-60
2023/11/14 12:47:01;;;;;;;;;;;;;;;12.37;88.33;99131.47;5071917;28;19924;-60
2023/11/14 12:49:28;;;;;;;;;;;;;;;12.46;87.45;99137.75;5083854;28;19951;-61
2023/11/14 12:51:57;;;;;;;;;;;;;;;12.78;86.47;99137.44;5077112;28;20022;-61